Time;durP1;ratioP1;P1;durP2;ratioP2;P2;SDS_P1;SDS_P2;PMS_P1;PMS_P2;Temp;Humidity;BMP_temperature;BMP_pressure;BME280_temperature;BME280_humidity;BME280_pressure;Samples;Min_cycle;Max_cycle;Signal;HPM_P1;HPM_P2
2022/06/14 00:01:01;;;;;;;0.00;0.00;;;13.10;73.30;;;;;;5027274;28;20049;-67
2022/06/14 00:03:32;;;;;;;0.00;0.00;;;13.10;73.20;;;;;;5033901;28;20080;-67
2022/06/14 00:06:01;;;;;;;0.00;0.00;;;13.10;73.40;;;;;;5029626;28;20037;-67
2022/06/14 00:08:28;;;;;;;0.00;0.00;;;13.10;73.40;;;;;;5030702;28;20041;-68
2022/06/14 00:10:55;;;;;;;0.00;0.00;;;13.10;73.50;;;;;;5028221;28;20060;-67
2022/06/14 00:13:21;;;;;;;0.00;0.00;;;13.10;73.40;;;;;;5025963;28;20095;-67
2022/06/14 00:15:48;;;;;;;0.00;0.00;;;13.10;73.30;;;;;;5027367;28;20533;-67
2022/06/14 00:18:15;;;;;;;0.00;0.00;;;13.10;73.20;;;;;;5027457;28;20044;-67
2022/06/14 00:20:42;;;;;;;0.00;0.00;;;13.10;73.20;;;;;;5027434;28;20034;-67
2022/06/14 00:23:10;;;;;;;0.00;0.00;;;13.00;73.10;;;;;;5027385;28;20041;-66
2022/06/14 00:25:47;;;;;;;0.00;0.00;;;13.10;73.30;;;;;;5027544;28;20052;-67
2022/06/14 00:28:15;;;;;;;0.00;0.00;;;13.10;73.40;;;;;;5031476;28;20046;-67
2022/06/14 00:30:43;;;;;;;0.00;0.00;;;13.10;73.20;;;;;;5031946;28;20041;-67
2022/06/14 00:33:09;;;;;;;0.00;0.00;;;13.00;73.30;;;;;;5031480;28;20116;-67
2022/06/14 00:35:35;;;;;;;0.00;0.00;;;13.00;73.50;;;;;;5030752;28;20152;-67
2022/06/14 00:38:01;;;;;;;0.00;0.00;;;13.00;73.80;;;;;;5031562;28;20658;-67
2022/06/14 00:40:30;;;;;;;0.15;0.15;;;13.00;73.70;;;;;;5030399;28;20532;-67
2022/06/14 00:42:57;;;;;;;0.00;0.00;;;13.00;73.90;;;;;;5029677;28;20084;-67
2022/06/14 00:45:22;;;;;;;0.00;0.00;;;13.00;74.30;;;;;;5031177;28;20037;-67
2022/06/14 00:47:57;;;;;;;0.00;0.00;;;13.00;74.00;;;;;;5030540;28;20103;-67
2022/06/14 00:50:31;;;;;;;0.00;0.00;;;12.80;74.00;;;;;;5018534;28;20427;-67
2022/06/14 00:53:03;;;;;;;0.00;0.00;;;12.90;73.90;;;;;;5021320;28;20134;-67
2022/06/14 00:55:30;;;;;;;;;;;12.90;73.90;;;;;;5031685;28;20073;-67
2022/06/14 00:58:07;;;;;;;0.00;0.00;;;12.90;73.80;;;;;;5032212;28;20336;-67
2022/06/14 01:00:40;;;;;;;0.00;0.00;;;12.90;73.90;;;;;;5037577;28;20037;-67
2022/06/14 01:03:13;;;;;;;0.00;0.00;;;12.80;74.10;;;;;;5032686;28;20046;-68
2022/06/14 01:06:08;;;;;;;0.00;0.00;;;12.80;74.10;;;;;;5031651;28;20135;-67
2022/06/14 01:08:57;;;;;;;0.00;0.00;;;12.80;74.40;;;;;;5034930;28;20335;-68
2022/06/14 01:11:55;;;;;;;0.00;0.00;;;12.80;74.30;;;;;;5031425;28;20053;-67
2022/06/14 01:14:27;;;;;;;0.00;0.00;;;12.80;74.20;;;;;;5019728;28;20053;-67
2022/06/14 01:16:52;;;;;;;0.00;0.00;;;12.80;74.40;;;;;;5051685;28;20040;-67
2022/06/14 01:19:24;;;;;;;0.00;0.00;;;12.70;74.60;;;;;;5043200;28;20045;-67
2022/06/14 01:22:10;;;;;;;0.00;0.00;;;12.70;74.50;;;;;;5031436;28;20816;-68
2022/06/14 01:24:39;;;;;;;0.00;0.00;;;12.70;74.60;;;;;;5027155;28;20050;-67
2022/06/14 01:27:08;;;;;;;0.03;0.03;;;12.70;74.60;;;;;;5031827;28;20161;-68
2022/06/14 01:29:38;;;;;;;0.00;0.00;;;12.60;74.70;;;;;;5031548;28;20053;-67
2022/06/14 01:32:07;;;;;;;0.00;0.00;;;12.70;74.70;;;;;;5028073;28;20073;-67
2022/06/14 01:34:37;;;;;;;0.00;0.00;;;12.60;74.80;;;;;;5022496;28;20419;-66
2022/06/14 01:37:03;;;;;;;0.00;0.00;;;12.60;74.80;;;;;;5030848;28;20729;-67
2022/06/14 01:39:29;;;;;;;0.00;0.00;;;12.60;74.70;;;;;;5029623;28;20128;-68
2022/06/14 01:42:13;;;;;;;0.00;0.00;;;12.70;74.70;;;;;;5031802;28;20131;-67
2022/06/14 01:45:11;;;;;;;0.00;0.00;;;12.60;74.80;;;;;;5051039;28;20124;-67
2022/06/14 01:47:48;;;;;;;0.00;0.00;;;12.60;74.80;;;;;;5031066;28;20648;-67
2022/06/14 01:53:25;;;;;;;0.00;0.00;;;12.60;75.50;;;;;;5030632;28;20506;-67
2022/06/14 01:56:03;;;;;;;0.00;0.00;;;12.50;75.80;;;;;;5035484;28;20048;-67
2022/06/14 01:58:52;;;;;;;0.00;0.00;;;12.60;75.50;;;;;;5038155;28;20436;-67
2022/06/14 02:01:54;;;;;;;0.00;0.00;;;12.50;75.50;;;;;;5030457;28;20049;-67
2022/06/14 02:04:46;;;;;;;0.00;0.00;;;12.60;75.60;;;;;;5026067;28;20045;-66
2022/06/14 02:07:26;;;;;;;0.00;0.00;;;12.60;75.50;;;;;;5031991;28;20045;-68
2022/06/14 02:10:08;;;;;;;0.00;0.00;;;12.60;75.40;;;;;;5022666;28;20549;-67
2022/06/14 02:13:14;;;;;;;0.00;0.00;;;12.60;75.60;;;;;;5041979;28;20048;-67
2022/06/14 02:16:06;;;;;;;0.00;0.00;;;12.60;75.30;;;;;;5050566;28;20045;-66
2022/06/14 02:18:37;;;;;;;;;;;12.60;75.70;;;;;;5026937;28;20045;-65
2022/06/14 02:21:13;;;;;;;0.00;0.00;;;12.50;75.90;;;;;;5030587;28;20062;-66
2022/06/14 02:23:47;;;;;;;0.03;0.03;;;12.60;76.00;;;;;;5039140;28;20053;-66
2022/06/14 02:26:32;;;;;;;0.00;0.00;;;12.60;75.70;;;;;;5036998;28;20517;-66
2022/06/14 02:29:23;;;;;;;0.00;0.00;;;12.60;75.80;;;;;;5029995;28;20048;-66
2022/06/14 02:31:55;;;;;;;0.00;0.00;;;12.60;76.00;;;;;;5036218;28;20044;-66
2022/06/14 02:34:32;;;;;;;0.00;0.00;;;12.60;75.90;;;;;;5037890;28;20116;-66
2022/06/14 02:37:11;;;;;;;0.00;0.00;;;12.60;75.90;;;;;;5048001;28;20124;-66
2022/06/14 02:39:42;;;;;;;0.00;0.00;;;12.50;75.80;;;;;;5036050;28;20053;-66
2022/06/14 02:42:27;;;;;;;0.00;0.00;;;12.50;75.60;;;;;;5029503;28;20099;-65
2022/06/14 02:45:03;;;;;;;0.00;0.00;;;12.50;76.00;;;;;;5024993;28;20072;-66
2022/06/14 02:47:40;;;;;;;0.00;0.00;;;12.50;76.00;;;;;;5010113;28;20084;-66
2022/06/14 02:50:20;;;;;;;0.00;0.00;;;12.50;76.00;;;;;;5021061;28;20045;-65
2022/06/14 02:53:09;;;;;;;0.00;0.00;;;12.40;76.20;;;;;;5047299;28;20115;-66
2022/06/14 02:55:43;;;;;;;0.00;0.00;;;12.50;76.00;;;;;;5049615;28;20057;-66
2022/06/14 02:58:13;;;;;;;0.00;0.00;;;12.50;75.90;;;;;;5058453;28;20111;-66
2022/06/14 03:00:49;;;;;;;0.00;0.00;;;12.50;76.00;;;;;;5032576;28;20043;-66
2022/06/14 03:03:33;;;;;;;0.00;0.00;;;12.50;76.00;;;;;;5009778;28;20053;-66
2022/06/14 03:06:12;;;;;;;0.00;0.00;;;12.50;76.00;;;;;;5021555;28;20045;-66
2022/06/14 03:08:47;;;;;;;0.00;0.00;;;12.50;75.90;;;;;;5038588;28;20515;-66
2022/06/14 03:11:31;;;;;;;0.00;0.00;;;12.40;75.80;;;;;;5031815;28;20062;-66
2022/06/14 03:14:18;;;;;;;0.00;0.00;;;12.50;75.80;;;;;;5030259;28;20054;-66
2022/06/14 03:16:53;;;;;;;0.05;0.05;;;12.40;75.90;;;;;;5024376;28;20387;-66
2022/06/14 03:19:40;;;;;;;0.00;0.00;;;12.40;75.90;;;;;;5032261;28;20045;-66
2022/06/14 03:22:12;;;;;;;0.00;0.00;;;12.40;76.00;;;;;;5030473;28;20041;-66
2022/06/14 03:25:01;;;;;;;0.03;0.03;;;12.40;76.20;;;;;;5029205;28;20781;-66
2022/06/14 03:27:38;;;;;;;0.00;0.00;;;12.30;76.10;;;;;;5044604;28;20049;-66
2022/06/14 03:30:09;;;;;;;0.10;0.10;;;12.30;76.00;;;;;;5021707;28;20076;-66
2022/06/14 03:32:49;;;;;;;0.10;0.10;;;12.30;76.30;;;;;;5026687;28;20526;-66
2022/06/14 03:35:43;;;;;;;0.00;0.00;;;12.30;76.50;;;;;;5036465;28;20065;-66
2022/06/14 03:38:14;;;;;;;0.08;0.08;;;12.30;76.40;;;;;;5029986;28;20065;-66
2022/06/14 03:40:42;;;;;;;0.00;0.00;;;12.30;76.30;;;;;;5031202;28;20124;-66
2022/06/14 03:43:08;;;;;;;0.00;0.00;;;12.30;76.30;;;;;;5022051;28;20053;-66
2022/06/14 03:45:41;;;;;;;0.00;0.00;;;12.30;76.80;;;;;;5047539;28;20145;-66
2022/06/14 03:48:08;;;;;;;0.03;0.03;;;12.30;76.80;;;;;;5029096;28;20047;-66
2022/06/14 03:50:56;;;;;;;0.00;0.00;;;12.30;77.30;;;;;;5029626;28;20124;-66
2022/06/14 03:53:32;;;;;;;0.00;0.00;;;12.40;77.30;;;;;;5028870;28;20121;-66
2022/06/14 03:56:31;;;;;;;0.00;0.00;;;12.40;77.40;;;;;;5028739;28;20042;-66
2022/06/14 03:59:05;;;;;;;0.03;0.03;;;12.40;77.40;;;;;;5030780;28;20045;-66
2022/06/14 04:01:39;;;;;;;0.00;0.00;;;12.40;77.30;;;;;;5022545;28;20053;-66
2022/06/14 04:04:11;;;;;;;0.00;0.00;;;12.40;77.30;;;;;;5032079;28;20053;-66
2022/06/14 04:07:05;;;;;;;0.00;0.00;;;12.50;77.60;;;;;;5033293;28;20834;-66
2022/06/14 04:09:43;;;;;;;0.03;0.03;;;12.50;77.60;;;;;;5032371;28;20052;-66
2022/06/14 04:12:33;;;;;;;0.00;0.00;;;12.50;77.80;;;;;;5035943;28;20128;-66
2022/06/14 04:15:32;;;;;;;0.00;0.00;;;12.50;77.90;;;;;;5034630;28;20068;-66
2022/06/14 04:18:35;;;;;;;0.00;0.00;;;12.60;77.90;;;;;;5017697;28;20049;-66
2022/06/14 04:21:26;;;;;;;0.00;0.00;;;12.50;77.90;;;;;;5037311;28;20045;-66
2022/06/14 04:24:17;;;;;;;0.00;0.00;;;12.50;78.20;;;;;;5036961;28;20073;-67
2022/06/14 04:27:07;;;;;;;0.00;0.00;;;12.60;78.50;;;;;;5044659;28;20067;-66
2022/06/14 04:29:46;;;;;;;0.00;0.00;;;12.60;78.30;;;;;;5032150;28;20046;-67
2022/06/14 04:32:39;;;;;;;0.00;0.00;;;12.60;78.40;;;;;;5051202;28;20414;-66
2022/06/14 04:35:16;;;;;;;0.00;0.00;;;12.70;78.70;;;;;;5012236;28;20629;-66
2022/06/14 04:37:51;;;;;;;0.00;0.00;;;12.70;78.80;;;;;;5045378;28;20490;-66
2022/06/14 04:40:37;;;;;;;0.00;0.00;;;12.80;78.70;;;;;;5036761;28;20148;-66
2022/06/14 04:43:08;;;;;;;0.00;0.00;;;12.80;78.80;;;;;;5048999;28;20056;-66
2022/06/14 04:45:47;;;;;;;0.00;0.00;;;12.80;79.40;;;;;;5043999;28;20096;-67
2022/06/14 04:48:20;;;;;;;0.00;0.00;;;12.80;79.10;;;;;;5031643;28;20053;-67
2022/06/14 04:50:55;;;;;;;0.00;0.00;;;12.90;79.10;;;;;;5032200;28;20042;-67
2022/06/14 04:53:25;;;;;;;0.00;0.00;;;12.90;79.10;;;;;;5031381;28;20044;-66
2022/06/14 04:56:10;;;;;;;0.00;0.00;;;13.00;78.60;;;;;;5032165;28;20092;-67
2022/06/14 04:58:52;;;;;;;0.00;0.00;;;13.10;78.80;;;;;;5033943;28;20041;-67
2022/06/14 05:01:33;;;;;;;0.00;0.00;;;13.10;79.00;;;;;;5031820;28;20041;-67
2022/06/14 05:04:07;;;;;;;0.00;0.00;;;13.10;78.80;;;;;;5043168;28;20417;-67
2022/06/14 05:06:39;;;;;;;0.00;0.00;;;13.20;78.70;;;;;;5029391;28;20137;-67
2022/06/14 05:09:11;;;;;;;0.00;0.00;;;13.10;79.00;;;;;;5030918;28;20529;-66
2022/06/14 05:11:48;;;;;;;0.00;0.00;;;13.20;78.80;;;;;;5030959;28;20065;-67
2022/06/14 05:14:22;;;;;;;0.00;0.00;;;13.20;78.80;;;;;;5031505;28;20060;-67
2022/06/14 05:17:09;;;;;;;0.00;0.00;;;13.30;78.80;;;;;;5031428;28;20112;-67
2022/06/14 05:19:49;;;;;;;0.00;0.00;;;13.30;78.70;;;;;;5040827;28;20091;-67
2022/06/14 05:22:33;;;;;;;0.00;0.00;;;13.40;78.60;;;;;;5037915;28;20493;-67
2022/06/14 05:25:00;;;;;;;0.00;0.00;;;13.40;79.00;;;;;;5032634;28;20119;-66
2022/06/14 05:27:53;;;;;;;0.00;0.00;;;13.40;78.70;;;;;;5041094;28;20045;-66
2022/06/14 05:30:49;;;;;;;0.05;0.05;;;13.50;78.80;;;;;;5040936;28;20516;-65
2022/06/14 05:33:45;;;;;;;0.55;0.55;;;13.60;78.80;;;;;;5044433;28;20037;-66
2022/06/14 05:36:19;;;;;;;0.00;0.00;;;13.60;78.70;;;;;;5031276;28;20056;-68
2022/06/14 05:38:57;;;;;;;0.00;0.00;;;13.60;78.40;;;;;;5035094;28;20050;-68
2022/06/14 05:41:30;;;;;;;1.00;1.00;;;13.70;78.40;;;;;;5013832;28;20046;-73
2022/06/14 05:44:13;;;;;;;0.00;0.00;;;13.70;78.10;;;;;;5029438;28;20037;-65
2022/06/14 05:46:54;;;;;;;0.00;0.00;;;13.80;77.80;;;;;;5041128;28;20056;-65
2022/06/14 05:49:23;;;;;;;0.00;0.00;;;13.90;77.90;;;;;;5038655;28;20083;-65
2022/06/14 05:51:52;;;;;;;1.65;1.27;;;13.90;77.90;;;;;;5031998;28;20052;-66
2022/06/14 05:54:30;;;;;;;0.00;0.00;;;14.00;77.70;;;;;;5031619;28;20045;-66
2022/06/14 05:57:00;;;;;;;0.00;0.00;;;14.10;77.10;;;;;;5030316;28;20041;-66
2022/06/14 05:59:38;;;;;;;0.00;0.00;;;14.10;76.70;;;;;;5030748;28;20045;-66
2022/06/14 06:02:24;;;;;;;0.00;0.00;;;14.10;76.10;;;;;;5032822;28;20056;-65
2022/06/14 06:05:10;;;;;;;0.00;0.00;;;14.10;75.60;;;;;;5029924;28;20041;-66
2022/06/14 06:07:43;;;;;;;0.00;0.00;;;14.20;75.80;;;;;;5028876;28;20144;-65
2022/06/14 06:10:36;;;;;;;0.00;0.00;;;14.30;76.00;;;;;;5030313;28;20502;-66
2022/06/14 06:13:10;;;;;;;0.00;0.00;;;14.30;76.20;;;;;;5030052;28;20061;-65
2022/06/14 06:15:43;;;;;;;0.00;0.00;;;14.90;76.80;;;;;;5038420;28;20053;-66
2022/06/14 06:18:34;;;;;;;0.00;0.00;;;15.10;72.70;;;;;;5034384;28;20060;-66
2022/06/14 06:21:06;;;;;;;0.00;0.00;;;15.00;72.20;;;;;;5017977;28;20050;-66
2022/06/14 06:23:40;;;;;;;0.10;0.10;;;15.00;73.20;;;;;;5008662;28;20562;-66
2022/06/14 06:26:06;;;;;;;0.20;0.20;;;14.90;72.60;;;;;;5010330;28;20053;-66
2022/06/14 06:28:37;;;;;;;0.20;0.20;;;14.80;73.50;;;;;;5010146;28;20394;-66
2022/06/14 06:31:11;;;;;;;0.00;0.00;;;14.80;73.40;;;;;;5027329;28;20112;-66
2022/06/14 06:33:40;;;;;;;0.00;0.00;;;14.80;73.40;;;;;;5007359;28;20076;-66
2022/06/14 06:36:24;;;;;;;0.00;0.00;;;14.80;73.60;;;;;;5029931;28;20606;-67
2022/06/14 06:39:09;;;;;;;1.75;0.43;;;14.80;72.40;;;;;;5017555;28;20068;-67
2022/06/14 06:41:54;;;;;;;0.00;0.00;;;14.90;72.70;;;;;;5029893;28;20518;-67
2022/06/14 06:44:28;;;;;;;0.00;0.00;;;14.90;72.60;;;;;;5028558;28;20048;-67
2022/06/14 06:47:27;;;;;;;0.00;0.00;;;14.90;71.60;;;;;;5031841;28;20037;-66
2022/06/14 06:50:24;;;;;;;0.00;0.00;;;15.00;71.60;;;;;;5031222;28;20057;-66
2022/06/14 06:53:12;;;;;;;0.00;0.00;;;15.10;71.80;;;;;;5039106;28;20099;-67
2022/06/14 06:55:56;;;;;;;0.00;0.00;;;15.10;70.10;;;;;;5031123;28;20056;-66
2022/06/14 06:58:32;;;;;;;0.00;0.00;;;15.10;69.20;;;;;;5023066;28;20049;-66
2022/06/14 07:00:59;;;;;;;0.00;0.00;;;15.20;68.90;;;;;;5024712;28;20048;-66
2022/06/14 07:03:32;;;;;;;0.05;0.05;;;15.30;68.20;;;;;;5032759;28;20040;-67
2022/06/14 07:06:01;;;;;;;0.00;0.00;;;15.30;68.00;;;;;;5048352;28;20207;-67
2022/06/14 07:08:40;;;;;;;0.10;0.10;;;15.40;68.50;;;;;;5036071;28;20052;-66
2022/06/14 07:11:09;;;;;;;0.05;0.05;;;15.50;68.10;;;;;;5038631;28;20440;-66
2022/06/14 07:13:56;;;;;;;0.17;0.17;;;15.50;68.50;;;;;;5030363;28;20063;-67
2022/06/14 07:16:31;;;;;;;0.00;0.00;;;15.60;67.90;;;;;;5046321;28;20513;-66
2022/06/14 07:19:19;;;;;;;0.03;0.03;;;15.60;68.10;;;;;;5039250;28;20044;-67
2022/06/14 07:22:09;;;;;;;0.00;0.00;;;15.70;68.70;;;;;;5024436;28;20391;-66
2022/06/14 07:25:01;;;;;;;0.00;0.00;;;15.80;68.80;;;;;;5029105;28;20041;-66
2022/06/14 07:27:32;;;;;;;0.00;0.00;;;16.00;69.10;;;;;;5024728;28;20053;-66
2022/06/14 07:30:14;;;;;;;0.00;0.00;;;16.00;68.00;;;;;;5034348;28;20319;-66
2022/06/14 07:32:51;;;;;;;0.00;0.00;;;16.10;68.40;;;;;;5027556;28;20049;-66
2022/06/14 07:35:25;;;;;;;3.65;1.55;;;16.10;67.10;;;;;;5028603;28;20049;-66
2022/06/14 07:38:32;;;;;;;0.00;0.00;;;16.20;66.70;;;;;;5029276;28;20494;-66
2022/06/14 07:41:08;;;;;;;0.00;0.00;;;16.20;66.60;;;;;;5030897;28;20049;-66
2022/06/14 07:43:43;;;;;;;0.00;0.00;;;16.10;65.70;;;;;;5036058;28;20520;-67
2022/06/14 07:46:14;;;;;;;0.10;0.10;;;16.10;65.80;;;;;;5042846;28;20041;-67
2022/06/14 07:49:08;;;;;;;0.00;0.00;;;16.20;65.90;;;;;;5031855;28;20494;-67
2022/06/14 07:51:53;;;;;;;0.10;0.10;;;16.30;66.10;;;;;;5031403;28;20111;-67
2022/06/14 07:54:29;;;;;;;0.00;0.00;;;16.40;65.00;;;;;;5033781;28;20045;-67
2022/06/14 07:57:06;;;;;;;0.00;0.00;;;16.50;64.70;;;;;;5032685;28;20418;-67
2022/06/14 07:59:39;;;;;;;0.15;0.15;;;16.50;65.00;;;;;;5033832;28;20051;-66
2022/06/14 08:02:23;;;;;;;0.00;0.00;;;16.50;65.70;;;;;;5036366;28;20057;-67
2022/06/14 08:05:12;;;;;;;0.00;0.00;;;16.40;65.20;;;;;;5032909;28;20041;-67
2022/06/14 08:07:41;;;;;;;0.00;0.00;;;16.50;65.70;;;;;;5047886;28;20053;-67
2022/06/14 08:10:25;;;;;;;0.00;0.00;;;16.50;65.50;;;;;;5048698;28;20080;-67
2022/06/14 08:13:00;;;;;;;0.00;0.00;;;16.60;65.90;;;;;;5020386;28;20058;-67
2022/06/14 08:15:31;;;;;;;0.00;0.00;;;16.70;66.00;;;;;;5027755;28;20033;-65
2022/06/14 08:18:11;;;;;;;0.00;0.00;;;16.80;64.00;;;;;;5028815;28;20037;-67
2022/06/14 08:20:39;;;;;;;0.00;0.00;;;16.90;62.70;;;;;;5028708;28;20041;-67
2022/06/14 08:23:29;;;;;;;0.00;0.00;;;16.80;63.00;;;;;;5027612;28;20060;-67
2022/06/14 08:26:08;;;;;;;0.00;0.00;;;16.90;63.90;;;;;;5020896;28;20045;-66
2022/06/14 08:28:39;;;;;;;0.00;0.00;;;17.00;64.70;;;;;;5029423;28;20056;-67
2022/06/14 08:31:17;;;;;;;0.00;0.00;;;17.10;65.80;;;;;;5034779;28;20045;-66
2022/06/14 08:34:09;;;;;;;0.00;0.00;;;17.20;64.10;;;;;;5015255;28;20285;-68
2022/06/14 08:37:12;;;;;;;0.00;0.00;;;17.30;65.20;;;;;;5025303;28;20522;-70
2022/06/14 08:39:43;;;;;;;0.00;0.00;;;17.10;64.30;;;;;;5009003;28;21182;-70
2022/06/14 08:42:35;;;;;;;0.52;0.28;;;17.30;65.10;;;;;;5028145;28;20047;-68
2022/06/14 08:45:08;;;;;;;0.00;0.00;;;17.40;64.90;;;;;;5027617;28;20486;-68
2022/06/14 08:47:33;;;;;;;0.65;0.40;;;17.40;63.80;;;;;;5017544;28;20088;-68
2022/06/14 08:50:08;;;;;;;0.10;0.10;;;17.40;63.80;;;;;;5012270;28;20077;-68
2022/06/14 08:52:48;;;;;;;0.00;0.00;;;17.30;63.30;;;;;;5012137;28;20042;-68
2022/06/14 08:55:27;;;;;;;0.00;0.00;;;17.30;63.60;;;;;;5025017;28;20095;-68
2022/06/14 08:58:08;;;;;;;0.00;0.00;;;17.20;63.70;;;;;;5025503;28;20048;-68
2022/06/14 09:00:58;;;;;;;0.00;0.00;;;17.30;64.10;;;;;;5031649;28;20057;-69
2022/06/14 09:03:33;;;;;;;0.00;0.00;;;17.30;63.50;;;;;;5028347;28;20473;-70
2022/06/14 09:06:28;;;;;;;0.00;0.00;;;17.30;63.70;;;;;;5032798;28;20041;-68
2022/06/14 09:09:18;;;;;;;0.10;0.10;;;17.20;62.00;;;;;;5038008;28;20041;-69
2022/06/14 09:12:09;;;;;;;0.00;0.00;;;17.20;63.10;;;;;;5022817;28;20038;-68
2022/06/14 09:14:51;;;;;;;0.00;0.00;;;17.30;62.40;;;;;;5033024;28;20129;-68
2022/06/14 09:17:35;;;;;;;0.00;0.00;;;17.40;62.90;;;;;;5027840;28;20081;-68
2022/06/14 09:20:19;;;;;;;0.05;0.05;;;17.50;62.40;;;;;;5023475;28;20084;-68
2022/06/14 09:22:54;;;;;;;0.10;0.10;;;17.60;61.40;;;;;;5032533;28;20037;-68
2022/06/14 09:25:38;;;;;;;0.00;0.00;;;17.60;61.50;;;;;;5030785;28;20040;-68
2022/06/14 09:28:24;;;;;;;0.47;0.47;;;17.60;60.80;;;;;;5035978;28;20047;-67
2022/06/14 09:31:04;;;;;;;0.00;0.00;;;17.70;59.70;;;;;;5011826;28;20455;-68
2022/06/14 09:34:02;;;;;;;0.00;0.00;;;17.80;59.90;;;;;;5030995;28;20056;-69
2022/06/14 09:36:45;;;;;;;0.00;0.00;;;17.90;59.30;;;;;;5031613;28;20057;-68
2022/06/14 09:39:36;;;;;;;0.00;0.00;;;18.00;59.10;;;;;;5019465;28;20124;-68
2022/06/14 09:42:09;;;;;;;0.00;0.00;;;18.10;59.20;;;;;;5031322;28;20113;-68
2022/06/14 09:45:08;;;;;;;0.00;0.00;;;18.00;58.10;;;;;;5019137;28;20474;-69
2022/06/14 09:47:58;;;;;;;0.00;0.00;;;17.80;60.00;;;;;;5028646;28;20056;-68
2022/06/14 09:50:48;;;;;;;0.00;0.00;;;17.80;60.60;;;;;;5030103;28;20049;-68
2022/06/14 09:53:44;;;;;;;0.00;0.00;;;17.90;60.80;;;;;;5035158;28;20757;-68
2022/06/14 09:56:51;;;;;;;0.00;0.00;;;17.90;60.80;;;;;;5034963;28;20060;-68
2022/06/14 09:59:48;;;;;;;0.00;0.00;;;18.00;60.20;;;;;;5017620;28;20128;-68
2022/06/14 10:02:45;;;;;;;0.00;0.00;;;18.00;59.50;;;;;;5032282;28;20502;-67
2022/06/14 10:05:30;;;;;;;0.00;0.00;;;17.90;58.80;;;;;;5031752;28;20066;-67
2022/06/14 10:08:16;;;;;;;0.00;0.00;;;17.80;59.50;;;;;;5029633;28;20038;-68
2022/06/14 10:11:01;;;;;;;0.00;0.00;;;17.80;58.90;;;;;;5028591;28;20052;-75
2022/06/14 10:13:59;;;;;;;0.00;0.00;;;17.80;60.30;;;;;;5036244;28;20061;-69
2022/06/14 10:16:40;;;;;;;0.00;0.00;;;17.90;58.50;;;;;;5025978;28;20077;-68
2022/06/14 10:19:14;;;;;;;0.00;0.00;;;18.10;59.00;;;;;;5025291;28;20041;-69
2022/06/14 10:21:46;;;;;;;0.15;0.15;;;18.20;60.30;;;;;;5014890;28;20053;-69
2022/06/14 10:24:33;;;;;;;0.00;0.00;;;18.40;60.20;;;;;;5020552;28;20081;-69
2022/06/14 10:31:05;;;;;;;0.15;0.15;;;18.40;57.90;;;;;;5011360;28;20060;-68
2022/06/14 10:33:45;;;;;;;0.00;0.00;;;18.30;58.80;;;;;;5031613;28;20037;-69
2022/06/14 10:36:40;;;;;;;0.00;0.00;;;18.10;58.20;;;;;;5023684;28;20414;-68
2022/06/14 10:39:37;;;;;;;0.00;0.00;;;18.10;59.50;;;;;;5024520;28;20128;-68
2022/06/14 10:42:23;;;;;;;0.00;0.00;;;18.00;59.80;;;;;;5023398;28;20041;-69
2022/06/14 10:45:16;;;;;;;0.00;0.00;;;18.00;60.30;;;;;;5036758;28;20069;-69
2022/06/14 10:47:58;;;;;;;0.00;0.00;;;18.10;60.30;;;;;;5027248;28;20052;-69
2022/06/14 10:50:34;;;;;;;0.00;0.00;;;18.00;60.70;;;;;;5024656;28;20045;-68
2022/06/14 10:53:18;;;;;;;0.00;0.00;;;18.00;59.10;;;;;;5028424;28;20046;-68
2022/06/14 10:56:07;;;;;;;0.00;0.00;;;18.10;60.20;;;;;;5026525;28;20045;-66
2022/06/14 10:58:56;;;;;;;0.00;0.00;;;18.10;59.70;;;;;;5019699;28;20053;-66
2022/06/14 11:02:00;;;;;;;0.00;0.00;;;18.10;58.60;;;;;;5039435;28;20378;-67
2022/06/14 11:05:03;;;;;;;0.00;0.00;;;18.20;58.60;;;;;;5036908;28;20041;-67
2022/06/14 11:07:47;;;;;;;0.10;0.10;;;18.30;60.40;;;;;;5029619;28;20060;-67
2022/06/14 11:10:30;;;;;;;0.00;0.00;;;18.40;59.20;;;;;;5029398;28;20046;-67
2022/06/14 11:13:01;;;;;;;0.00;0.00;;;18.50;59.60;;;;;;5032274;28;20068;-69
2022/06/14 11:15:54;;;;;;;0.10;0.10;;;18.50;57.20;;;;;;5018353;28;20057;-67
2022/06/14 11:18:48;;;;;;;0.00;0.00;;;18.50;58.70;;;;;;5009700;28;20045;-67
2022/06/14 11:21:47;;;;;;;0.00;0.00;;;18.60;58.50;;;;;;5015495;28;20058;-67
2022/06/14 11:24:45;;;;;;;0.20;0.20;;;18.60;58.00;;;;;;4997975;28;20054;-67
2022/06/14 11:27:19;;;;;;;0.00;0.00;;;18.60;58.40;;;;;;5027140;28;20160;-67
2022/06/14 11:30:15;;;;;;;0.00;0.00;;;18.70;57.60;;;;;;5029188;28;20160;-67
2022/06/14 11:32:53;;;;;;;0.00;0.00;;;18.70;58.00;;;;;;5019879;28;20118;-68
2022/06/14 11:35:50;;;;;;;0.00;0.00;;;18.60;57.90;;;;;;5019531;28;20803;-67
2022/06/14 11:38:25;;;;;;;0.00;0.00;;;18.60;58.20;;;;;;5028688;28;20562;-67
2022/06/14 11:40:57;;;;;;;0.00;0.00;;;18.70;57.00;;;;;;5014465;28;20049;-67
2022/06/14 11:43:34;;;;;;;0.00;0.00;;;18.80;58.70;;;;;;5026770;28;20045;-67
2022/06/14 11:46:19;;;;;;;0.00;0.00;;;18.90;57.70;;;;;;5020971;28;20440;-66
2022/06/14 11:49:07;;;;;;;0.00;0.00;;;19.00;57.80;;;;;;5029278;28;20041;-68
2022/06/14 11:51:56;;;;;;;0.00;0.00;;;19.10;57.60;;;;;;5012665;28;20103;-68
2022/06/14 11:54:38;;;;;;;0.03;0.03;;;19.10;57.40;;;;;;5029145;28;20046;-66
2022/06/14 11:57:20;;;;;;;0.00;0.00;;;19.20;57.10;;;;;;5024784;28;20518;-67
2022/06/14 12:00:10;;;;;;;6.93;0.65;;;19.00;57.40;;;;;;5028909;28;20048;-67
2022/06/14 12:02:38;;;;;;;0.00;0.00;;;19.10;57.60;;;;;;5027276;28;20044;-67
2022/06/14 12:05:21;;;;;;;0.10;0.10;;;19.10;57.30;;;;;;5024980;28;20053;-67
2022/06/14 12:08:00;;;;;;;0.00;0.00;;;19.10;56.30;;;;;;5025902;28;20061;-67
2022/06/14 12:10:47;;;;;;;0.00;0.00;;;19.00;57.30;;;;;;5027200;28;20049;-67
2022/06/14 12:13:22;;;;;;;0.00;0.00;;;19.00;56.40;;;;;;5024084;28;20053;-65
2022/06/14 12:16:06;;;;;;;0.00;0.00;;;19.00;56.90;;;;;;5029948;28;20112;-66
2022/06/14 12:18:36;;;;;;;0.00;0.00;;;19.00;57.70;;;;;;5028530;28;20095;-66
2022/06/14 12:22:00;;;;;;;0.15;0.15;;;19.10;57.40;;;;;;5027932;28;20046;-66
2022/06/14 12:27:18;;;;;;;0.00;0.00;;;19.00;57.00;;;;;;5027941;28;20402;-67
2022/06/14 12:29:47;;;;;;;0.00;0.00;;;19.10;56.40;;;;;;5031714;28;20054;-67
2022/06/14 12:32:23;;;;;;;0.00;0.00;;;19.10;57.70;;;;;;5032518;28;20052;-66
2022/06/14 12:34:57;;;;;;;0.00;0.00;;;19.10;57.80;;;;;;5030220;28;20445;-66
2022/06/14 12:37:36;;;;;;;0.00;0.00;;;19.10;57.60;;;;;;5031919;28;20037;-67
2022/06/14 12:40:28;;;;;;;0.00;0.00;;;19.20;58.00;;;;;;5030943;28;20045;-66
2022/06/14 12:43:08;;;;;;;0.20;0.20;;;19.40;57.50;;;;;;5026505;28;20072;-66
2022/06/14 12:46:06;;;;;;;0.00;0.00;;;19.50;57.90;;;;;;5026963;28;20041;-65
2022/06/14 12:49:03;;;;;;;0.00;0.00;;;19.60;56.90;;;;;;5026424;28;20180;-67
2022/06/14 12:51:35;;;;;;;0.00;0.00;;;19.60;56.60;;;;;;5031365;28;20041;-66
2022/06/14 12:54:13;;;;;;;;;;;19.70;55.20;;;;;;5032168;28;20049;-66
2022/06/14 12:56:48;;;;;;;0.00;0.00;;;19.90;55.40;;;;;;5031442;28;20275;-67
2022/06/14 12:59:32;;;;;;;0.00;0.00;;;20.00;55.40;;;;;;5031171;28;20077;-66
2022/06/14 13:02:26;;;;;;;0.00;0.00;;;19.90;55.90;;;;;;5017346;28;20045;-66
2022/06/14 13:05:10;;;;;;;0.00;0.00;;;19.70;55.10;;;;;;5032324;28;20036;-66
2022/06/14 13:08:03;;;;;;;0.00;0.00;;;19.70;55.00;;;;;;5013578;28;20060;-66
2022/06/14 13:10:46;;;;;;;0.70;0.38;;;19.60;55.50;;;;;;5034228;28;20050;-68
2022/06/14 13:13:46;;;;;;;0.00;0.00;;;19.70;56.20;;;;;;5030936;28;20049;-67
2022/06/14 13:16:27;;;;;;;0.10;0.10;;;19.70;56.10;;;;;;5043762;28;20520;-66
2022/06/14 13:19:17;;;;;;;0.00;0.00;;;19.70;54.50;;;;;;5048961;28;20444;-67
2022/06/14 13:22:24;;;;;;;0.00;0.00;;;19.70;56.30;;;;;;5021512;28;20052;-66
2022/06/14 13:25:15;;;;;;;0.00;0.00;;;19.80;56.00;;;;;;5026900;28;20064;-67
2022/06/14 13:27:58;;;;;;;0.00;0.00;;;19.70;54.20;;;;;;5029926;28;20049;-66
2022/06/14 13:30:23;;;;;;;0.00;0.00;;;19.60;55.50;;;;;;5024729;28;20045;-67
2022/06/14 13:33:12;;;;;;;0.00;0.00;;;19.50;55.50;;;;;;5018847;28;20413;-66
2022/06/14 13:35:44;;;;;;;0.00;0.00;;;19.50;55.30;;;;;;5020101;28;20072;-66
2022/06/14 13:38:18;;;;;;;0.00;0.00;;;19.40;53.00;;;;;;5020383;28;20064;-66
2022/06/14 13:40:54;;;;;;;0.00;0.00;;;19.40;54.50;;;;;;5021864;28;20477;-65
2022/06/14 13:43:37;;;;;;;0.98;0.93;;;19.50;54.20;;;;;;5035571;28;20395;-65
2022/06/14 13:46:17;;;;;;;0.00;0.00;;;19.30;55.00;;;;;;5029679;28;20076;-66
2022/06/14 13:48:59;;;;;;;0.00;0.00;;;19.40;54.90;;;;;;5026964;28;20680;-65
2022/06/14 13:51:28;;;;;;;0.00;0.00;;;19.50;55.70;;;;;;5013146;28;20049;-66
2022/06/14 13:53:59;;;;;;;0.00;0.00;;;19.40;54.00;;;;;;5023201;28;20045;-66
2022/06/14 13:56:47;;;;;;;0.00;0.00;;;19.60;55.00;;;;;;5025888;28;20037;-66
2022/06/14 13:59:18;;;;;;;0.00;0.00;;;19.70;54.90;;;;;;5025098;28;20120;-68
2022/06/14 14:02:16;;;;;;;0.00;0.00;;;19.80;53.00;;;;;;5031342;28;20069;-68
2022/06/14 14:05:00;;;;;;;0.00;0.00;;;19.90;54.50;;;;;;5029556;28;20469;-68
2022/06/14 14:07:34;;;;;;;0.00;0.00;;;20.00;53.90;;;;;;5030606;28;20044;-65